Aviation Digital Data Service (ADDS)

Output produced by METARs form (2046 UTC 25 February 2017)
found at http://www.aviationweather.gov/adds/metars/
 
KCXY 252030Z 29015G25KT 250V320 10SM VCTS -RA FEW036 BKN049 OVC080 12/07 A2950 RMK AO2 PK WND 31034/1958 WSHFT 1945 LTG DSNT NE-S TSB1958E24 P0013 T01170072
KCXY 252018Z 30014G27KT 4SM -TSRA SCT031 BKN040 OVC070 12/08 A2947 RMK AO2 PK WND 31034/1958 WSHFT 1945 LTG DSNT ALQDS TSB1958 P0012 T01170083
KCXY 252015Z 30018G27KT 1 1/2SM R08/4500VP6000FT TSRA SCT031 BKN038 OVC070 12/08 A2948 RMK AO2 PK WND 31034/1958 WSHFT 1945 LTG DSNT ALQDS TSB1958 P0012 T01170083
KCXY 252008Z 30019G31KT 1 1/4SM R08/4500VP6000FT +TSRA BKN029 BKN038 OVC065 12/08 A2946 RMK AO2 PK WND 31034/1958 WSHFT 1945 LTG DSNT ALQDS TSB1958 P0011 T01170078
KCXY 252005Z 29019G34KT 2 1/2SM TSRA SCT028 BKN036 OVC065 12/08 A2947 RMK AO2 PK WND 31034/1958 WSHFT 1945 LTG DSNT ALQDS TSB1958 P0005 T01220078
KCXY 251959Z 29020G38KT 10SM -TSRA BKN028 OVC070 13/08 A2946 RMK AO2 PK WND 31034/1958 WSHFT 1945 LTG DSNT ALQDS TSB58 PRESRR P0000 T01280083
KCXY 251956Z 30026G38KT 10SM VCTS -RA SCT028 BKN040 OVC070 13/08 A2943 RMK AO2 PK WND 30038/1953 LTG DSNT ALQDS RAB08E19B49 SLP966 P0000 T01330083
KCXY 251948Z 29022G34KT 10SM VCTS FEW032 SCT044 BKN070 19/11 A2944 RMK AO2 PK WND 29034/1946 LTG DSNT ALQDS RAB08E19 PRESRR P0000 T01940111
KCXY 251938Z 22009G15KT 10SM FEW039 BKN060 BKN075 22/13 A2940 RMK AO2 LTG DSNT ALQDS RAB08E19 P0000 T02170128
KCXY 251856Z 19012G16KT 10SM VCTS SCT043 SCT060 BKN090 23/13 A2940 RMK AO2 LTG DSNT NE-S RAB08E35 PRESFR SLP955 P0000 T02280133
KCXY 251847Z 22005KT 10SM VCTS FEW035 FEW075 BKN090 22/14 A2942 RMK AO2 LTG DSNT NE-S RAB08E35 PRESFR P0000 T02220139
KCXY 251756Z 24006KT 10SM BKN036 OVC043 21/13 A2949 RMK AO2 LTG DSNT NE SLP986 60000 T02060128 10217 20172 58035
KCXY 251703Z 20008KT 10SM OVC034 21/13 A2953 RMK AO2 T02060133
KCXY 251656Z 19007KT 170V230 10SM BKN027 BKN032 OVC038 21/13 A2954 RMK AO2 RAB46E55 SLP003 P0000 T02060133
KCXY 251610Z 17011G17KT 10SM BKN027 BKN032 OVC038 21/13 A2956 RMK AO2 T02060133
KCXY 251556Z COR 17010G16KT 10SM BKN027 BKN032 OVC038 21/13 A2957 RMK AO2 SLP012 T02110133
KCXY 251456Z 14008G15KT 10SM BKN022 21/13 A2959 RMK AO2 SLP020 T02060133 58015
KCXY 251356Z 18009KT 10SM OVC018 18/13 A2962 RMK AO2 SLP029 T01830133
KCXY 251256Z VRB06G15KT 10SM BKN019 18/13 A2963 RMK AO2 SLP033 T01780133
KCXY 251156Z 19008KT 150V210 10SM OVC018 17/13 A2964 RMK AO2 SLP035 T01720133 10178 20167 58014
KCXY 251056Z AUTO VRB06KT 10SM OVC016 17/13 A2966 RMK AO2 SLP044 T01720133
KCXY 251054Z AUTO 18005KT 10SM OVC014 17/13 A2966 RMK AO2
KCXY 250956Z AUTO 15010KT 10SM BKN019 17/13 A2968 RMK AO2 SLP048 T01720133
KCXY 250856Z AUTO 17006KT 10SM BKN019 17/13 A2970 RMK AO2 SLP056 T01720133 56020
KCXY 250847Z AUTO 14007KT 10SM BKN021 17/13 A2970 RMK AO2 T01720133
KCXY 250756Z AUTO 16005KT 10SM FEW020 17/13 A2972 RMK AO2 SLP062 T01720133
KCXY 250656Z AUTO 15008KT 10SM CLR 17/13 A2974 RMK AO2 SLP068 T01720133
KCXY 250639Z AUTO 16006KT 10SM SCT016 17/13 A2974 RMK AO2 T01720133
KCXY 250556Z AUTO 00000KT 10SM BKN016 BKN050 17/13 A2976 RMK AO2 SLP077 T01670128 10206 20167 55002
KCXY 250456Z AUTO 14004KT 10SM CLR 17/13 A2976 RMK AO2 SLP076 T01720133 402670106
KCXY 250356Z AUTO 14008KT 10SM CLR 17/13 A2976 RMK AO2 SLP078 T01720128
KCXY 250256Z AUTO 15009KT 10SM CLR 18/12 A2977 RMK AO2 SLP080 T01830122 58003
KCXY 250156Z 14010KT 10SM CLR 19/12 A2977 RMK AO2 SLP082 T01890117
KCXY 250056Z 16008KT 10SM CLR 20/12 A2978 RMK AO2 SLP084 T02000117
KCXY 242356Z 14010KT 10SM CLR 21/11 A2978 RMK AO2 SLP083 T02060111 10267 20206 53002
KCXY 242256Z 15012KT 10SM CLR 22/11 A2977 RMK AO2 SLP082 T02170111
KCXY 242156Z 17015KT 10SM CLR 23/11 A2977 RMK AO2 SLP079 T02330106
KCXY 242056Z 19012KT 10SM FEW060 25/09 A2977 RMK AO2 SLP080 T02500094 56016
KCXY 241956Z 17016G21KT 10SM CLR 26/09 A2978 RMK AO2 SLP084 T02560089
KCXY 241856Z 19015G21KT 10SM CLR 25/09 A2979 RMK AO2 SLP088 T02500094
KCXY 241756Z 18011G21KT 10SM CLR 26/10 A2982 RMK AO2 SLP096 T02560100 10256 20106 58028
KCXY 241656Z 19009G17KT 150V210 10SM CLR 24/11 A2985 RMK AO2 SLP108 T02390106
KCXY 241556Z 17012KT 10SM CLR 22/11 A2988 RMK AO2 SLP118 T02220111
KCXY 241456Z 06004KT 10SM CLR 19/11 A2990 RMK AO2 SLP125 T01940106 50007
KCXY 241356Z 10004KT 10SM CLR 16/10 A2991 RMK AO2 SLP127 T01610100
KCXY 241256Z 10006KT 10SM CLR 14/10 A2990 RMK AO2 SLP125 T01440100
KCXY 241156Z 00000KT 10SM CLR 11/08 A2988 RMK AO2 SLP118 T01110083 10161 20106 53005
KCXY 241056Z AUTO 00000KT 10SM FEW100 12/08 A2987 RMK AO2 SLP115 T01170083
KCXY 240956Z AUTO 00000KT 10SM BKN100 13/09 A2987 RMK AO2 SLP116 T01330094
KCXY 240856Z AUTO 00000KT 10SM CLR 14/10 A2987 RMK AO2 SLP112 T01440100 53003